Time;durP1;ratioP1;P1;durP2;ratioP2;P2;SDS_P1;SDS_P2;PMS_P1;PMS_P2;Temp;Humidity;BMP_temperature;BMP_pressure;BME280_temperature;BME280_humidity;BME280_pressure;Samples;Min_cycle;Max_cycle;Signal;HPM_P1;HPM_P2
2021/01/25 00:01:18;;;;;;;8.50;6.60;;;0.90;99.90;;;;;;4836363;29;20493;-83
2021/01/25 00:03:44;;;;;;;8.23;6.40;;;0.90;99.90;;;;;;4854168;29;20457;-89
2021/01/25 00:06:10;;;;;;;7.18;6.18;;;0.90;99.90;;;;;;4861959;29;21197;-85
2021/01/25 00:08:35;;;;;;;7.00;5.55;;;0.90;99.90;;;;;;4846815;29;20442;-84
2021/01/25 00:11:01;;;;;;;7.80;6.13;;;0.90;99.90;;;;;;4851541;29;20413;-82
2021/01/25 00:13:27;;;;;;;7.30;6.00;;;1.00;99.90;;;;;;4854692;29;21176;-83
2021/01/25 00:15:52;;;;;;;7.00;5.97;;;1.00;99.90;;;;;;4867938;29;20430;-88
2021/01/25 00:18:18;;;;;;;7.10;6.13;;;0.90;99.90;;;;;;4835320;29;20425;-83
2021/01/25 00:20:44;;;;;;;8.03;6.47;;;0.90;99.90;;;;;;4844723;29;20433;-83
2021/01/25 00:23:10;;;;;;;7.95;6.15;;;1.00;99.90;;;;;;4863134;29;20984;-83
2021/01/25 00:25:35;;;;;;;9.68;7.00;;;1.00;99.90;;;;;;4830131;29;20479;-83
2021/01/25 00:28:01;;;;;;;8.63;6.47;;;1.00;99.90;;;;;;4832389;29;20414;-82
2021/01/25 00:30:27;;;;;;;8.17;7.03;;;1.00;99.90;;;;;;4846771;29;20630;-83
2021/01/25 00:32:52;;;;;;;9.13;7.03;;;1.00;99.90;;;;;;4832916;29;20407;-84
2021/01/25 00:35:18;;;;;;;8.27;6.57;;;1.00;99.90;;;;;;4831892;29;20435;-81
2021/01/25 00:37:44;;;;;;;7.87;6.67;;;1.00;99.90;;;;;;4836855;29;20751;-84
2021/01/25 00:40:10;;;;;;;7.93;6.65;;;1.00;99.90;;;;;;4833057;29;20441;-85
2021/01/25 00:42:36;;;;;;;9.15;6.82;;;1.00;99.90;;;;;;4840373;29;20447;-84
2021/01/25 00:45:03;;;;;;;10.20;7.53;;;1.10;99.90;;;;;;4834284;29;20453;-83
2021/01/25 00:47:29;;;;;;;8.65;7.10;;;1.10;99.90;;;;;;4831509;29;20619;-79
2021/01/25 00:49:54;;;;;;;9.02;7.13;;;1.10;99.90;;;;;;4847317;29;20506;-79
2021/01/25 00:52:20;;;;;;;7.67;6.80;;;1.10;99.90;;;;;;4846829;29;20403;-81
2021/01/25 00:54:46;;;;;;;8.13;6.95;;;1.10;99.90;;;;;;4846347;29;20406;-79
2021/01/25 00:57:12;;;;;;;9.40;7.43;;;1.10;99.90;;;;;;4857886;29;20406;-82
2021/01/25 00:59:38;;;;;;;9.20;7.17;;;1.20;99.90;;;;;;4833894;29;20401;-82
2021/01/25 01:02:03;;;;;;;10.75;7.57;;;1.10;99.90;;;;;;4871472;29;20468;-88
2021/01/25 01:04:29;;;;;;;8.73;6.95;;;1.10;99.90;;;;;;4866285;29;20467;-84
2021/01/25 01:06:55;;;;;;;7.97;7.13;;;1.10;99.90;;;;;;4845459;29;20442;-85
2021/01/25 01:09:20;;;;;;;10.15;7.80;;;1.10;99.90;;;;;;4823677;29;20971;-81
2021/01/25 01:11:46;;;;;;;11.73;8.05;;;1.10;99.90;;;;;;4835842;29;21013;-81
2021/01/25 01:14:12;;;;;;;9.20;7.53;;;1.10;99.90;;;;;;4842590;29;20417;-81
2021/01/25 01:16:37;;;;;;;9.23;7.60;;;1.20;99.90;;;;;;4845825;29;20429;-82
2021/01/25 01:19:03;;;;;;;13.20;8.02;;;1.10;99.90;;;;;;4828877;29;20798;-84
2021/01/25 01:21:29;;;;;;;10.23;7.87;;;1.10;99.90;;;;;;4844800;29;20781;-80
2021/01/25 01:23:54;;;;;;;11.32;8.30;;;1.10;99.90;;;;;;4829596;29;20412;-87
2021/01/25 01:26:20;;;;;;;11.75;8.73;;;1.10;99.90;;;;;;4839712;29;20986;-84
2021/01/25 01:28:46;;;;;;;10.23;8.73;;;1.20;99.90;;;;;;4839277;29;20398;-83
2021/01/25 01:31:11;;;;;;;10.50;8.38;;;1.20;99.90;;;;;;4828874;29;20421;-83
2021/01/25 01:33:37;;;;;;;10.18;8.30;;;1.10;99.90;;;;;;4843951;29;20484;-83
2021/01/25 01:36:03;;;;;;;11.83;8.13;;;1.20;99.90;;;;;;4842080;29;20418;-82
2021/01/25 01:38:30;;;;;;;9.35;8.00;;;1.10;99.90;;;;;;4854310;29;20416;-82
2021/01/25 01:40:59;;;;;;;9.73;8.43;;;1.10;99.90;;;;;;4825436;29;20431;-82
2021/01/25 01:43:24;;;;;;;10.57;8.27;;;1.20;99.90;;;;;;4844193;29;20404;-88
2021/01/25 01:45:50;;;;;;;10.73;8.17;;;1.20;99.90;;;;;;4841589;29;20406;-85
2021/01/25 01:48:16;;;;;;;10.07;8.00;;;1.20;99.90;;;;;;4849278;29;20440;-82
2021/01/25 01:50:41;;;;;;;11.73;8.30;;;1.20;99.90;;;;;;4833962;29;20408;-83
2021/01/25 01:53:07;;;;;;;11.20;8.47;;;1.30;99.90;;;;;;4833757;29;20415;-81
2021/01/25 01:55:33;;;;;;;10.68;8.68;;;1.30;99.90;;;;;;4830443;29;20434;-82
2021/01/25 01:57:58;;;;;;;11.32;8.43;;;1.30;99.90;;;;;;4874976;29;20405;-82
2021/01/25 02:00:24;;;;;;;9.43;8.03;;;1.30;99.90;;;;;;4842296;29;20482;-82
2021/01/25 02:02:50;;;;;;;12.68;8.05;;;1.30;99.90;;;;;;4845831;29;20411;-81
2021/01/25 02:05:15;;;;;;;12.30;8.75;;;1.30;99.90;;;;;;4844256;29;20418;-81
2021/01/25 02:07:42;;;;;;;8.30;7.40;;;1.30;99.90;;;;;;4828655;29;20991;-82
2021/01/25 02:10:08;;;;;;;9.77;7.90;;;1.30;99.90;;;;;;4833962;29;20444;-81
2021/01/25 02:12:34;;;;;;;9.30;7.90;;;1.30;99.90;;;;;;4823459;29;20433;-87
2021/01/25 02:15:00;;;;;;;10.88;7.75;;;1.30;99.90;;;;;;4859629;29;20428;-82
2021/01/25 02:17:26;;;;;;;11.25;7.93;;;1.30;99.90;;;;;;4866646;29;20422;-83
2021/01/25 02:20:17;;;;;;;11.60;7.45;;;1.20;99.90;;;;;;4866008;29;20438;-87
2021/01/25 02:22:46;;;;;;;11.75;8.13;;;1.30;99.90;;;;;;4853909;29;20405;-83
2021/01/25 02:25:20;;;;;;;10.18;7.50;;;1.30;99.90;;;;;;4863382;29;20414;-87
2021/01/25 02:27:46;;;;;;;9.65;7.15;;;1.30;99.90;;;;;;4828264;29;20486;-81
2021/01/25 02:30:12;;;;;;;10.82;8.35;;;1.30;99.90;;;;;;4840382;29;20438;-82
2021/01/25 02:32:38;;;;;;;10.45;7.68;;;1.30;99.90;;;;;;4845882;29;20570;-84
2021/01/25 02:35:07;;;;;;;14.27;8.25;;;1.30;99.90;;;;;;4825929;29;20788;-86
2021/01/25 02:37:32;;;;;;;10.13;7.50;;;1.30;99.90;;;;;;4873878;29;20413;-82
2021/01/25 02:39:59;;;;;;;8.40;7.20;;;1.30;99.90;;;;;;4846335;29;20756;-85
2021/01/25 02:42:25;;;;;;;9.68;6.88;;;1.30;99.90;;;;;;4848098;29;20393;-82
2021/01/25 02:44:51;;;;;;;9.00;6.78;;;1.30;99.90;;;;;;4845254;29;20919;-84
2021/01/25 02:47:19;;;;;;;8.55;7.00;;;1.30;99.90;;;;;;4841412;29;20533;-81
2021/01/25 02:49:45;;;;;;;9.07;7.40;;;1.30;99.90;;;;;;4859478;29;20408;-82
2021/01/25 02:52:14;;;;;;;10.93;7.73;;;1.30;99.90;;;;;;4842699;29;20466;-81
2021/01/25 02:54:41;;;;;;;8.00;7.18;;;1.30;99.90;;;;;;4837960;29;20906;-80
2021/01/25 02:57:10;;;;;;;8.40;7.13;;;1.40;99.90;;;;;;4841499;29;20514;-81
2021/01/25 02:59:36;;;;;;;8.40;7.40;;;1.40;99.90;;;;;;4838744;29;20472;-85
2021/01/25 03:02:02;;;;;;;8.85;7.35;;;1.50;99.90;;;;;;4839450;29;20422;-80
2021/01/25 03:04:29;;;;;;;9.68;7.07;;;1.50;99.90;;;;;;4826078;29;20917;-81
2021/01/25 03:06:54;;;;;;;8.73;6.83;;;1.50;99.90;;;;;;4840272;29;20427;-80
2021/01/25 03:09:22;;;;;;;8.33;7.13;;;1.50;99.90;;;;;;4816922;29;20451;-80
2021/01/25 03:11:48;;;;;;;8.65;7.00;;;1.50;99.90;;;;;;4853028;29;20411;-80
2021/01/25 03:14:13;;;;;;;9.80;7.30;;;1.50;99.90;;;;;;4827978;29;20441;-80
2021/01/25 03:16:39;;;;;;;9.70;7.45;;;1.50;99.90;;;;;;4831558;29;20418;-82
2021/01/25 03:19:05;;;;;;;8.20;6.93;;;1.50;99.90;;;;;;4843310;29;20419;-82
2021/01/25 03:21:32;;;;;;;9.80;7.70;;;1.50;99.90;;;;;;4848280;29;20500;-81
2021/01/25 03:23:59;;;;;;;8.07;6.25;;;1.50;99.90;;;;;;4855850;29;20478;-82
2021/01/25 03:26:25;;;;;;;9.00;7.60;;;1.60;99.90;;;;;;4838699;29;20421;-80
2021/01/25 03:28:51;;;;;;;10.03;8.00;;;1.50;99.90;;;;;;4846144;29;20413;-79
2021/01/25 03:31:16;;;;;;;8.70;7.50;;;1.70;99.90;;;;;;4832204;29;20411;-80
2021/01/25 03:33:42;;;;;;;9.03;7.80;;;1.60;99.90;;;;;;4844339;29;20416;-83
2021/01/25 03:36:08;;;;;;;10.82;7.82;;;1.50;99.90;;;;;;4840820;29;20500;-79
2021/01/25 03:38:34;;;;;;;9.40;7.53;;;1.50;99.90;;;;;;4824862;29;20426;-81
2021/01/25 03:40:59;;;;;;;9.75;7.72;;;1.50;99.90;;;;;;4843169;29;20786;-82
2021/01/25 03:43:25;;;;;;;9.03;7.17;;;1.50;99.90;;;;;;4826719;29;20408;-80
2021/01/25 03:45:52;;;;;;;7.55;6.75;;;1.50;99.90;;;;;;4839859;29;20447;-81
2021/01/25 03:48:17;;;;;;;10.38;8.00;;;1.50;99.90;;;;;;4836720;29;20943;-80
2021/01/25 03:50:43;;;;;;;9.27;7.40;;;1.50;99.90;;;;;;4842037;29;20450;-81
2021/01/25 03:53:10;;;;;;;10.23;7.82;;;1.40;99.90;;;;;;4841606;29;20406;-79
2021/01/25 03:55:36;;;;;;;12.35;8.18;;;1.50;99.90;;;;;;4848050;29;20445;-81
2021/01/25 03:58:02;;;;;;;11.75;8.63;;;1.50;99.90;;;;;;4845632;29;20450;-81
2021/01/25 04:00:27;;;;;;;11.50;8.40;;;1.40;99.90;;;;;;4854887;29;20443;-84
2021/01/25 04:02:53;;;;;;;11.43;8.77;;;1.40;99.90;;;;;;4852065;29;20441;-81
2021/01/25 04:05:19;;;;;;;9.32;8.23;;;1.50;99.90;;;;;;4851460;29;20550;-82
2021/01/25 04:07:45;;;;;;;11.15;8.38;;;1.40;99.90;;;;;;4853215;29;20414;-82
2021/01/25 04:10:11;;;;;;;10.05;8.98;;;1.40;99.90;;;;;;4850153;29;20945;-82
2021/01/25 04:12:37;;;;;;;12.82;9.55;;;1.40;99.90;;;;;;4829379;29;20468;-83
2021/01/25 04:15:04;;;;;;;10.63;8.55;;;1.40;99.90;;;;;;4834757;29;20489;-83
2021/01/25 04:17:31;;;;;;;10.60;9.00;;;1.30;99.90;;;;;;4847389;29;21270;-83
2021/01/25 04:19:57;;;;;;;10.07;8.00;;;1.40;99.90;;;;;;4860546;29;20487;-83
2021/01/25 04:22:22;;;;;;;11.07;8.88;;;1.30;99.90;;;;;;4844060;29;20545;-80
2021/01/25 04:24:48;;;;;;;12.63;8.83;;;1.30;99.90;;;;;;4842113;29;20443;-82
2021/01/25 04:27:14;;;;;;;9.82;8.38;;;1.30;99.90;;;;;;4840562;29;20416;-85
2021/01/25 04:29:42;;;;;;;10.25;8.38;;;1.30;99.90;;;;;;4847593;29;20984;-80
2021/01/25 04:32:09;;;;;;;10.00;8.40;;;1.40;99.90;;;;;;4857152;29;20409;-81
2021/01/25 04:34:35;;;;;;;9.98;8.38;;;1.30;99.90;;;;;;4846778;29;20410;-82
2021/01/25 04:37:00;;;;;;;11.35;8.82;;;1.40;99.90;;;;;;4837920;29;20417;-81
2021/01/25 04:39:26;;;;;;;10.57;8.77;;;1.40;99.90;;;;;;4828994;29;20405;-83
2021/01/25 04:41:52;;;;;;;10.70;9.10;;;1.40;99.90;;;;;;4826738;29;20843;-81
2021/01/25 04:44:17;;;;;;;10.45;8.43;;;1.40;99.90;;;;;;4858901;29;20409;-79
2021/01/25 04:46:43;;;;;;;10.20;8.40;;;1.30;99.90;;;;;;4828694;29;20415;-81
2021/01/25 04:49:13;;;;;;;9.10;8.15;;;1.40;99.90;;;;;;4834252;29;20409;-83
2021/01/25 04:51:39;;;;;;;10.10;8.40;;;1.40;99.90;;;;;;4840917;29;20412;-79
2021/01/25 04:54:06;;;;;;;9.95;7.47;;;1.30;99.90;;;;;;4864536;29;20429;-82
2021/01/25 04:56:32;;;;;;;9.18;7.80;;;1.40;99.90;;;;;;4854055;29;20416;-87
2021/01/25 04:58:58;;;;;;;9.20;7.85;;;1.30;99.90;;;;;;4832888;29;20401;-82
2021/01/25 05:01:23;;;;;;;9.25;7.28;;;1.40;99.90;;;;;;4827040;29;20452;-80
2021/01/25 05:03:49;;;;;;;9.20;7.37;;;1.40;99.90;;;;;;4827753;29;20427;-83
2021/01/25 05:06:15;;;;;;;10.27;8.00;;;1.30;99.90;;;;;;4846674;29;20412;-81
2021/01/25 05:08:41;;;;;;;9.50;7.55;;;1.40;99.90;;;;;;4847487;29;20401;-81
2021/01/25 05:11:16;;;;;;;7.55;6.65;;;1.30;99.90;;;;;;4847037;29;20408;-83
2021/01/25 05:13:42;;;;;;;9.27;7.45;;;1.30;99.90;;;;;;4846100;29;20459;-81
2021/01/25 05:16:18;;;;;;;8.50;7.37;;;1.30;99.90;;;;;;4859916;29;20412;-80
2021/01/25 05:18:44;;;;;;;9.52;7.80;;;1.30;99.90;;;;;;4861158;29;20501;-84
2021/01/25 05:21:10;;;;;;;8.80;7.13;;;1.30;99.90;;;;;;4844894;29;20421;-80
2021/01/25 05:23:41;;;;;;;7.57;6.77;;;1.40;99.90;;;;;;4847952;29;20911;-80
2021/01/25 05:26:10;;;;;;;8.57;7.10;;;1.40;99.90;;;;;;4856392;29;20497;-79
2021/01/25 05:28:42;;;;;;;8.47;7.27;;;1.40;99.90;;;;;;4857123;29;20406;-82
2021/01/25 05:31:21;;;;;;;7.80;7.10;;;1.40;99.90;;;;;;4839516;29;20482;-82
2021/01/25 05:33:46;;;;;;;8.47;7.00;;;1.30;99.90;;;;;;4841141;29;21195;-80
2021/01/25 05:36:21;;;;;;;9.13;7.00;;;1.30;99.90;;;;;;4814930;29;20410;-81
2021/01/25 05:38:50;;;;;;;7.65;6.85;;;1.30;99.90;;;;;;4856219;29;20419;-78
2021/01/25 05:41:16;;;;;;;7.97;6.72;;;1.50;99.90;;;;;;4827700;29;20425;-80
2021/01/25 05:43:42;;;;;;;7.90;7.10;;;1.30;99.90;;;;;;4841222;29;20413;-80
2021/01/25 05:46:12;;;;;;;8.88;7.13;;;1.40;99.90;;;;;;4826411;29;20431;-81
2021/01/25 05:48:39;;;;;;;7.85;6.57;;;1.40;99.90;;;;;;4853539;29;20425;-80
2021/01/25 05:51:31;;;;;;;9.23;7.47;;;1.40;99.90;;;;;;4830677;29;20418;-79
2021/01/25 05:54:02;;;;;;;8.35;6.78;;;1.50;99.90;;;;;;4853691;29;20408;-79
2021/01/25 05:56:29;;;;;;;7.65;6.72;;;1.40;99.90;;;;;;4830758;29;20475;-79
2021/01/25 05:58:55;;;;;;;6.90;6.20;;;1.30;99.90;;;;;;4853025;29;20418;-83
2021/01/25 06:01:21;;;;;;;7.93;6.05;;;1.50;99.90;;;;;;4858264;29;20426;-79
2021/01/25 06:03:47;;;;;;;9.20;6.57;;;1.30;99.90;;;;;;4822527;29;20413;-79
2021/01/25 06:06:15;;;;;;;8.68;6.40;;;1.30;99.90;;;;;;4841973;29;20413;-79
2021/01/25 06:08:51;;;;;;;9.00;6.60;;;1.30;99.90;;;;;;4836707;29;20968;-80
2021/01/25 06:11:26;;;;;;;7.22;6.38;;;1.30;99.90;;;;;;4867555;29;20970;-78
2021/01/25 06:14:14;;;;;;;8.98;7.47;;;1.30;99.90;;;;;;4855321;29;20463;-83
2021/01/25 06:16:40;;;;;;;7.00;6.28;;;1.30;99.90;;;;;;4867755;29;20421;-80
2021/01/25 06:19:09;;;;;;;10.65;6.80;;;1.20;99.90;;;;;;4822984;29;20484;-80
2021/01/25 06:21:37;;;;;;;7.43;6.18;;;1.20;99.90;;;;;;4843638;29;20420;-80
2021/01/25 06:24:04;;;;;;;6.72;6.03;;;1.30;99.90;;;;;;4840866;29;20492;-79
2021/01/25 06:26:30;;;;;;;7.45;6.32;;;1.20;99.90;;;;;;4825582;29;20943;-78
2021/01/25 06:29:02;;;;;;;9.70;6.75;;;1.30;99.90;;;;;;4821400;29;20467;-80
2021/01/25 06:31:28;;;;;;;7.23;5.80;;;1.20;99.90;;;;;;4843454;29;20499;-82
2021/01/25 06:33:54;;;;;;;7.37;5.50;;;1.20;99.90;;;;;;4845909;29;20508;-83
2021/01/25 06:36:20;;;;;;;7.53;6.20;;;1.30;99.90;;;;;;4826376;29;20445;-79
2021/01/25 06:38:49;;;;;;;7.65;5.97;;;1.30;99.90;;;;;;4842463;29;20545;-81
2021/01/25 06:41:15;;;;;;;8.68;6.13;;;1.30;99.90;;;;;;4824096;29;20450;-79
2021/01/25 06:43:42;;;;;;;8.20;6.80;;;1.30;99.90;;;;;;4872850;29;20412;-83
2021/01/25 06:46:08;;;;;;;9.57;5.63;;;1.30;99.90;;;;;;4831892;29;20422;-80
2021/01/25 06:48:34;;;;;;;9.30;6.57;;;1.40;99.90;;;;;;4841055;29;20409;-79
2021/01/25 06:51:00;;;;;;;7.43;6.72;;;1.50;99.90;;;;;;4849336;29;20405;-79
2021/01/25 06:53:27;;;;;;;7.95;6.70;;;1.40;99.90;;;;;;4840558;29;20770;-79
2021/01/25 06:56:00;;;;;;;7.60;5.97;;;1.30;99.90;;;;;;4847561;29;21003;-79
2021/01/25 06:58:29;;;;;;;9.02;6.53;;;1.30;99.90;;;;;;4844954;29;20413;-79
2021/01/25 07:00:56;;;;;;;8.68;6.97;;;1.30;99.90;;;;;;4843771;29;20921;-79
2021/01/25 07:03:21;;;;;;;9.18;6.53;;;1.30;99.90;;;;;;4845569;29;20412;-78
2021/01/25 07:05:49;;;;;;;8.10;6.70;;;1.30;99.90;;;;;;4842525;29;20406;-79
2021/01/25 07:08:24;;;;;;;7.38;6.32;;;1.30;99.90;;;;;;4844310;29;20409;-78
2021/01/25 07:10:57;;;;;;;7.22;6.10;;;1.30;99.90;;;;;;4844412;29;20510;-79
2021/01/25 07:13:24;;;;;;;8.82;6.75;;;1.30;99.90;;;;;;4845968;29;21091;-79
2021/01/25 07:15:50;;;;;;;6.68;5.97;;;1.30;99.90;;;;;;4850717;29;20954;-79
2021/01/25 07:18:17;;;;;;;7.00;6.22;;;1.20;99.90;;;;;;4845856;29;20412;-80
2021/01/25 07:20:46;;;;;;;7.53;6.50;;;1.30;99.90;;;;;;4828932;29;20512;-80
2021/01/25 07:23:12;;;;;;;7.93;6.83;;;1.30;99.90;;;;;;4826556;29;20447;-78
2021/01/25 07:25:38;;;;;;;7.53;6.40;;;1.50;99.90;;;;;;4836148;29;20843;-79
2021/01/25 07:28:04;;;;;;;8.02;6.50;;;1.40;99.90;;;;;;4844782;29;20475;-83
2021/01/25 07:30:31;;;;;;;7.22;6.53;;;1.30;99.90;;;;;;4829202;29;20814;-81
2021/01/25 07:33:00;;;;;;;7.35;6.57;;;1.40;99.90;;;;;;4842331;29;20425;-81
2021/01/25 07:35:29;;;;;;;7.43;5.85;;;1.30;99.90;;;;;;4856563;29;20418;-80
2021/01/25 07:37:54;;;;;;;8.18;6.50;;;1.30;99.90;;;;;;4856807;29;20414;-79
2021/01/25 07:40:23;;;;;;;7.30;6.53;;;1.20;99.90;;;;;;4863142;29;20424;-80
2021/01/25 07:42:50;;;;;;;7.63;6.23;;;1.20;99.90;;;;;;4844780;29;20472;-81
2021/01/25 07:45:16;;;;;;;7.75;6.13;;;1.20;99.90;;;;;;4844408;29;20419;-79
2021/01/25 07:47:44;;;;;;;7.47;5.85;;;1.40;99.90;;;;;;4846321;29;20401;-81
2021/01/25 07:50:11;;;;;;;7.13;5.67;;;1.20;99.90;;;;;;4847303;29;20798;-81
2021/01/25 07:52:37;;;;;;;6.88;5.55;;;1.20;99.90;;;;;;4849601;29;20427;-81
2021/01/25 07:55:15;;;;;;;6.90;6.15;;;1.30;99.90;;;;;;4848614;29;20897;-81
2021/01/25 07:57:42;;;;;;;8.13;6.23;;;1.30;99.90;;;;;;4847223;29;20405;-81
2021/01/25 08:00:34;;;;;;;7.22;6.45;;;1.40;99.90;;;;;;4842970;29;20406;-81
2021/01/25 08:03:02;;;;;;;8.43;6.68;;;1.40;99.90;;;;;;4853485;29;20546;-81
2021/01/25 08:05:28;;;;;;;9.15;7.15;;;1.30;99.90;;;;;;4846997;29;20413;-81
2021/01/25 08:07:54;;;;;;;12.18;7.80;;;1.30;99.90;;;;;;4850250;29;20466;-81
2021/01/25 08:10:20;;;;;;;8.70;7.20;;;1.30;99.90;;;;;;4839056;29;20435;-81
2021/01/25 08:12:46;;;;;;;10.93;8.52;;;1.30;99.90;;;;;;4844847;29;20409;-79
2021/01/25 08:15:33;;;;;;;10.13;8.73;;;1.30;99.90;;;;;;4835335;29;20416;-80
2021/01/25 08:18:07;;;;;;;9.53;7.90;;;1.30;99.90;;;;;;4864848;29;20458;-79
2021/01/25 08:20:34;;;;;;;10.40;8.10;;;1.30;99.90;;;;;;4856462;29;20476;-80
2021/01/25 08:23:05;;;;;;;11.40;8.82;;;1.30;99.90;;;;;;4846866;29;20440;-78
2021/01/25 08:25:30;;;;;;;11.07;9.10;;;1.30;99.90;;;;;;4854742;29;20462;-81
2021/01/25 08:28:09;;;;;;;10.53;8.17;;;1.30;99.90;;;;;;4835941;29;20835;-80
2021/01/25 08:30:39;;;;;;;11.20;9.05;;;1.40;99.90;;;;;;4843235;29;20497;-78
2021/01/25 08:33:07;;;;;;;10.53;9.40;;;1.40;99.90;;;;;;4851459;29;20406;-78
2021/01/25 08:35:35;;;;;;;13.23;9.13;;;1.30;99.90;;;;;;4853485;29;20412;-79
2021/01/25 08:38:16;;;;;;;11.90;9.32;;;1.40;99.90;;;;;;4841467;29;20421;-79
2021/01/25 08:40:41;;;;;;;12.23;10.40;;;1.40;99.90;;;;;;4848073;29;20430;-81
2021/01/25 08:43:20;;;;;;;13.97;9.97;;;1.50;99.90;;;;;;4829279;29;20489;-80
2021/01/25 08:45:46;;;;;;;14.02;10.35;;;1.50;99.90;;;;;;4831626;29;20437;-80
2021/01/25 08:48:12;;;;;;;14.20;11.00;;;1.60;99.90;;;;;;4861705;29;20408;-81
2021/01/25 08:50:37;;;;;;;11.40;10.20;;;1.50;99.90;;;;;;4843641;29;20414;-79
2021/01/25 08:53:07;;;;;;;12.17;10.63;;;1.50;99.90;;;;;;4838927;29;20458;-78
2021/01/25 08:55:40;;;;;;;13.48;10.30;;;1.50;99.90;;;;;;4845635;29;20423;-80
2021/01/25 08:58:15;;;;;;;15.52;11.68;;;1.60;99.90;;;;;;4855778;29;20910;-79
2021/01/25 09:00:42;;;;;;;15.68;12.13;;;1.60;99.90;;;;;;4875357;29;20516;-81
2021/01/25 09:03:10;;;;;;;15.30;10.90;;;1.60;99.90;;;;;;4846303;29;20413;-80
2021/01/25 09:05:36;;;;;;;15.02;11.15;;;1.60;99.90;;;;;;4836222;29;20415;-80
2021/01/25 09:08:02;;;;;;;16.52;12.38;;;1.70;99.90;;;;;;4845501;29;21003;-79
2021/01/25 09:10:27;;;;;;;15.37;12.47;;;1.70;99.90;;;;;;4861020;29;20413;-80
2021/01/25 09:12:53;;;;;;;15.00;12.40;;;1.70;99.90;;;;;;4843784;29;20669;-79
2021/01/25 09:15:19;;;;;;;14.50;11.68;;;1.80;99.90;;;;;;4828104;29;20464;-83
2021/01/25 09:17:45;;;;;;;15.90;12.60;;;1.80;99.90;;;;;;4832865;29;20949;-80
2021/01/25 09:20:11;;;;;;;15.00;11.43;;;2.00;99.90;;;;;;4840046;29;20407;-80
2021/01/25 09:22:36;;;;;;;15.45;11.52;;;2.00;99.90;;;;;;4840585;29;20414;-80
2021/01/25 09:25:04;;;;;;;14.48;11.63;;;2.00;99.90;;;;;;4841321;29;20410;-81
2021/01/25 09:27:29;;;;;;;15.23;10.90;;;1.90;99.90;;;;;;4841877;29;20895;-81
2021/01/25 09:29:55;;;;;;;13.70;11.40;;;1.90;99.90;;;;;;4836360;29;20491;-82
2021/01/25 09:32:21;;;;;;;12.63;10.77;;;1.90;99.90;;;;;;4844514;29;20407;-81
2021/01/25 09:34:48;;;;;;;14.00;10.80;;;2.10;99.90;;;;;;4860799;29;20397;-81
2021/01/25 09:37:13;;;;;;;13.75;11.35;;;2.00;99.90;;;;;;4843722;29;20401;-81
2021/01/25 09:39:39;;;;;;;13.60;10.40;;;2.10;99.90;;;;;;4847978;29;20417;-80
2021/01/25 09:42:06;;;;;;;13.73;9.88;;;2.10;99.90;;;;;;4829131;29;20714;-81
2021/01/25 09:44:33;;;;;;;11.43;9.68;;;2.10;99.90;;;;;;4832559;29;20416;-81
2021/01/25 09:46:58;;;;;;;12.35;9.52;;;2.20;99.90;;;;;;4846632;29;20825;-80
2021/01/25 09:49:24;;;;;;;11.75;9.10;;;2.20;99.90;;;;;;4846396;29;20413;-79
2021/01/25 09:51:50;;;;;;;15.55;10.23;;;2.30;99.90;;;;;;4859407;29;20401;-80
2021/01/25 09:54:17;;;;;;;15.13;10.27;;;2.40;99.90;;;;;;4826421;29;20505;-81
2021/01/25 09:56:43;;;;;;;10.70;9.20;;;2.50;99.90;;;;;;4826507;29;20422;-81
2021/01/25 09:59:10;;;;;;;11.65;9.32;;;2.50;99.90;;;;;;4826644;29;20414;-81
2021/01/25 10:01:36;;;;;;;11.77;10.05;;;2.70;99.90;;;;;;4839899;29;20422;-81
2021/01/25 10:04:02;;;;;;;10.77;9.10;;;2.60;99.90;;;;;;4810926;29;20437;-81
2021/01/25 10:06:28;;;;;;;11.43;9.45;;;2.70;99.90;;;;;;4824370;29;20477;-80
2021/01/25 10:08:57;;;;;;;10.48;9.00;;;2.80;99.90;;;;;;4823965;29;20449;-80
2021/01/25 10:11:27;;;;;;;10.13;8.40;;;2.80;99.90;;;;;;4825069;29;20478;-80
2021/01/25 10:13:53;;;;;;;10.65;8.80;;;2.70;99.90;;;;;;4838010;29;20432;-80
2021/01/25 10:16:19;;;;;;;11.32;8.75;;;2.80;99.90;;;;;;4824821;29;21007;-77
2021/01/25 10:18:46;;;;;;;12.23;9.13;;;2.90;99.90;;;;;;4844238;29;20426;-81
2021/01/25 10:21:30;;;;;;;10.88;8.85;;;3.00;99.90;;;;;;4838080;29;20506;-83
2021/01/25 10:24:00;;;;;;;11.55;8.93;;;3.00;99.90;;;;;;4858036;29;20434;-81
2021/01/25 10:27:20;;;;;;;10.73;8.03;;;3.20;99.90;;;;;;4866961;29;20482;-81
2021/01/25 10:30:24;;;;;;;8.63;7.70;;;3.10;99.90;;;;;;4827764;29;20462;-80
2021/01/25 10:32:59;;;;;;;10.63;8.10;;;3.20;99.90;;;;;;4767829;29;20437;-80
2021/01/25 10:35:29;;;;;;;11.05;8.68;;;3.00;99.90;;;;;;4829605;29;20517;-78
2021/01/25 10:37:57;;;;;;;10.93;8.43;;;3.00;99.90;;;;;;4845700;29;20844;-79
2021/01/25 10:40:23;;;;;;;11.68;8.27;;;3.00;99.90;;;;;;4853441;29;20430;-79
2021/01/25 10:42:48;;;;;;;8.97;8.03;;;3.00;99.90;;;;;;4856651;29;20412;-79
2021/01/25 10:45:14;;;;;;;11.38;8.30;;;2.90;99.90;;;;;;4840706;29;20790;-79
2021/01/25 10:47:40;;;;;;;10.93;8.27;;;2.90;99.90;;;;;;4871716;29;20427;-79
2021/01/25 10:50:07;;;;;;;12.13;8.90;;;3.00;99.90;;;;;;4828721;29;20781;-78
2021/01/25 10:52:33;;;;;;;12.00;8.60;;;2.90;99.90;;;;;;4844936;29;20897;-79
2021/01/25 10:54:59;;;;;;;12.10;9.35;;;2.90;99.90;;;;;;4824825;29;20409;-79
2021/01/25 10:57:24;;;;;;;10.73;8.73;;;2.90;99.90;;;;;;4847323;29;20406;-79
2021/01/25 10:59:50;;;;;;;12.57;9.15;;;2.90;99.90;;;;;;4858338;29;20404;-79
2021/01/25 11:02:18;;;;;;;10.23;8.23;;;3.00;99.90;;;;;;4844391;29;20413;-79
2021/01/25 11:04:44;;;;;;;9.57;7.90;;;2.90;99.90;;;;;;4845402;29;20424;-79
2021/01/25 11:07:10;;;;;;;11.80;8.30;;;3.00;99.90;;;;;;4857339;29;20444;-79
2021/01/25 11:09:36;;;;;;;12.73;8.40;;;2.90;99.90;;;;;;4860010;29;20455;-79
2021/01/25 11:12:01;;;;;;;9.47;8.30;;;3.00;99.90;;;;;;4843910;29;20413;-79
2021/01/25 11:14:27;;;;;;;10.57;8.40;;;3.00;99.90;;;;;;4838126;29;20419;-79
2021/01/25 11:16:53;;;;;;;11.45;7.68;;;3.00;99.90;;;;;;4834920;29;20462;-79
2021/01/25 11:19:19;;;;;;;10.73;8.20;;;3.00;99.90;;;;;;4863889;29;20891;-78
2021/01/25 11:21:44;;;;;;;9.65;7.85;;;3.00;99.90;;;;;;4829621;29;20428;-78
2021/01/25 11:24:10;;;;;;;9.32;8.30;;;3.00;99.90;;;;;;4845036;29;20938;-78
2021/01/25 11:26:38;;;;;;;10.67;7.93;;;3.00;99.90;;;;;;4840729;29;20416;-78
2021/01/25 11:29:05;;;;;;;10.73;8.15;;;3.00;99.90;;;;;;4858963;29;20420;-78
2021/01/25 11:31:30;;;;;;;11.18;8.35;;;3.10;99.90;;;;;;4847057;29;20413;-81
2021/01/25 11:33:56;;;;;;;10.77;8.47;;;3.10;99.90;;;;;;4834297;29;20415;-81
2021/01/25 11:36:31;;;;;;;9.20;7.60;;;3.10;99.90;;;;;;4828130;29;20913;-80
2021/01/25 11:39:42;;;;;;;9.23;8.13;;;3.10;99.90;;;;;;4845657;29;20842;-80
2021/01/25 11:43:03;;;;;;;11.88;8.98;;;3.10;99.90;;;;;;4820124;29;20430;-81
2021/01/25 11:46:05;;;;;;;9.23;7.68;;;3.00;99.90;;;;;;4838821;29;20420;-81
2021/01/25 11:48:42;;;;;;;9.87;7.83;;;3.20;99.90;;;;;;4833106;29;20409;-81
2021/01/25 11:51:18;;;;;;;10.02;8.65;;;3.00;99.90;;;;;;4872684;29;20448;-80
2021/01/25 11:53:47;;;;;;;11.60;9.50;;;3.00;99.90;;;;;;4908561;23;20614;-80
2021/01/25 11:56:13;;;;;;;13.10;9.20;;;3.00;99.90;;;;;;4875814;29;20412;-79
2021/01/25 11:59:23;;;;;;;10.27;8.40;;;3.00;99.90;;;;;;4833788;29;20420;-81
2021/01/25 12:02:18;;;;;;;12.27;9.27;;;3.00;99.90;;;;;;4815293;29;20435;-80
2021/01/25 12:05:31;;;;;;;12.38;9.27;;;3.00;99.90;;;;;;4857712;29;20417;-79
2021/01/25 12:08:47;;;;;;;15.18;9.68;;;3.10;99.90;;;;;;4848675;29;20492;-80
2021/01/25 12:12:02;;;;;;;12.00;10.00;;;3.00;99.90;;;;;;4801495;29;20419;-80
2021/01/25 12:15:53;;;;;;;10.15;8.88;;;3.10;99.90;;;;;;4853123;29;20525;-80
2021/01/25 12:21:59;;;;;;;10.82;9.40;;;3.10;99.90;;;;;;4831853;29;20439;-79
2021/01/25 12:24:54;;;;;;;13.25;9.73;;;3.10;99.90;;;;;;4818074;29;20424;-81
2021/01/25 12:28:02;;;;;;;11.90;9.93;;;3.10;99.90;;;;;;4801225;29;20798;-80
2021/01/25 12:30:52;;;;;;;11.00;9.45;;;3.20;99.90;;;;;;4744825;30;20519;-83
2021/01/25 12:33:40;;;;;;;9.88;8.88;;;3.10;99.90;;;;;;4697967;30;20532;-80
2021/01/25 12:37:13;;;;;;;10.60;9.17;;;3.10;99.90;;;;;;4757885;30;20427;-81
2021/01/25 12:40:30;;;;;;;11.75;9.43;;;3.20;99.90;;;;;;4911093;29;20429;-81
2021/01/25 12:42:56;;;;;;;11.57;9.05;;;3.20;99.90;;;;;;4880475;29;20409;-80
2021/01/25 12:45:23;;;;;;;13.50;10.47;;;3.20;99.90;;;;;;4895053;29;20397;-80
2021/01/25 12:47:59;;;;;;;14.73;9.38;;;3.20;99.90;;;;;;4903793;23;20401;31
2021/01/25 12:50:25;;;;;;;12.40;9.05;;;3.20;99.90;;;;;;4855523;29;20787;-79
2021/01/25 12:52:53;;;;;;;11.70;8.95;;;3.20;99.90;;;;;;4834075;29;20415;-79
2021/01/25 12:55:19;;;;;;;10.68;9.00;;;3.20;99.90;;;;;;4856120;29;20481;-80
2021/01/25 12:57:46;;;;;;;9.88;8.25;;;3.30;99.90;;;;;;4841580;29;20526;-81
2021/01/25 13:00:17;;;;;;;12.77;8.93;;;3.20;99.90;;;;;;4839861;29;20454;-80
2021/01/25 13:02:43;;;;;;;10.07;8.57;;;3.10;99.90;;;;;;4825507;29;20497;-80
2021/01/25 13:05:11;;;;;;;9.98;8.65;;;3.20;99.90;;;;;;4840567;29;20402;-80
2021/01/25 13:07:37;;;;;;;9.73;8.35;;;3.20;99.90;;;;;;4825341;29;20415;-80